createdAt,value
2022-08-01T00:00:09.049Z,61.80
2022-08-01T00:02:39.712Z,61.90
2022-08-01T00:05:07.271Z,62.00
2022-08-01T00:07:34.591Z,62.10
2022-08-01T00:10:01.864Z,61.90
2022-08-01T00:12:28.714Z,61.90
2022-08-01T00:14:55.540Z,61.90
2022-08-01T00:17:22.306Z,61.80
2022-08-01T00:19:49.135Z,61.70
2022-08-01T00:22:15.995Z,61.90
2022-08-01T00:24:42.872Z,61.90
2022-08-01T00:27:09.711Z,62.10
2022-08-01T00:30:12.816Z,62.20
2022-08-01T00:32:23.291Z,62.50
2022-08-01T00:34:51.094Z,62.50
2022-08-01T00:37:18.246Z,62.40
2022-08-01T00:39:45.171Z,62.60
2022-08-01T00:42:12.520Z,62.60
2022-08-01T00:44:39.834Z,62.50
2022-08-01T00:47:07.357Z,62.40
2022-08-01T00:49:34.233Z,62.50
2022-08-01T00:52:01.203Z,62.50
2022-08-01T00:54:28.298Z,62.60
2022-08-01T00:56:55.293Z,62.60
2022-08-01T00:59:22.713Z,62.80
2022-08-01T01:01:50.361Z,62.80
2022-08-01T01:04:17.964Z,63.10
2022-08-01T01:07:03.595Z,63.10
2022-08-01T01:10:01.247Z,63.10
2022-08-01T01:12:55.668Z,63.10
2022-08-01T01:15:26.836Z,62.80
2022-08-01T01:18:03.339Z,62.70
2022-08-01T01:20:33.210Z,62.70
2022-08-01T01:23:30.328Z,62.80
2022-08-01T01:26:09.013Z,63.00
2022-08-01T01:28:56.037Z,63.10
2022-08-01T01:31:22.820Z,63.20
2022-08-01T01:33:50.151Z,63.30
2022-08-01T01:36:17.239Z,63.40
2022-08-01T01:38:45.290Z,63.40
2022-08-01T01:41:13.107Z,63.40
2022-08-01T01:43:39.997Z,63.40
2022-08-01T01:46:06.874Z,63.30
2022-08-01T01:48:34.476Z,63.20
2022-08-01T01:51:01.472Z,63.10
2022-08-01T01:53:29.408Z,63.30
2022-08-01T01:55:57.421Z,63.50
2022-08-01T01:58:24.434Z,63.60
2022-08-01T02:00:52.298Z,63.60
2022-08-01T02:03:19.596Z,63.70
2022-08-01T02:05:46.563Z,63.80
2022-08-01T02:08:15.749Z,63.80
2022-08-01T02:10:42.605Z,63.70
2022-08-01T02:13:09.780Z,63.90
2022-08-01T02:16:00.110Z,63.70
2022-08-01T02:18:27.121Z,63.70
2022-08-01T02:20:54.246Z,63.90
2022-08-01T02:23:22.649Z,64.10
2022-08-01T02:26:10.324Z,63.90
2022-08-01T02:28:54.377Z,64.00
2022-08-01T02:31:22.656Z,64.20
2022-08-01T02:34:01.074Z,64.20
2022-08-01T02:36:31.944Z,64.20
2022-08-01T02:39:01.763Z,64.40
2022-08-01T02:41:28.570Z,64.50
2022-08-01T02:43:59.966Z,64.30
2022-08-01T02:46:35.948Z,64.10
2022-08-01T02:49:03.505Z,64.10
2022-08-01T02:51:30.358Z,64.10
2022-08-01T02:53:57.130Z,64.10
2022-08-01T02:56:24.291Z,64.30
2022-08-01T02:58:51.108Z,64.40
2022-08-01T03:01:20.646Z,64.30
2022-08-01T03:03:48.282Z,64.30
2022-08-01T03:06:15.532Z,64.40
2022-08-01T03:08:42.325Z,64.40
2022-08-01T03:11:09.267Z,64.50
2022-08-01T03:13:36.041Z,64.40
2022-08-01T03:16:02.833Z,64.30
2022-08-01T03:18:29.628Z,64.20
2022-08-01T03:20:56.451Z,64.20
2022-08-01T03:23:23.535Z,64.20
2022-08-01T03:26:05.139Z,64.40
2022-08-01T03:28:31.909Z,64.50
2022-08-01T03:30:59.861Z,64.60
2022-08-01T03:33:26.895Z,64.70
2022-08-01T03:35:55.005Z,64.80
2022-08-01T03:38:24.322Z,64.80
2022-08-01T03:40:54.712Z,64.80
2022-08-01T03:43:32.815Z,64.60
2022-08-01T03:46:02.167Z,64.50
2022-08-01T03:48:31.956Z,64.40
2022-08-01T03:50:58.808Z,64.50
2022-08-01T03:53:27.140Z,64.50
2022-08-01T03:55:54.070Z,64.90
2022-08-01T03:58:20.927Z,64.90
2022-08-01T04:00:48.367Z,65.00
2022-08-01T04:03:15.213Z,65.10
2022-08-01T04:05:43.485Z,65.20
2022-08-01T04:08:10.423Z,65.10
2022-08-01T04:10:38.031Z,65.20
2022-08-01T04:13:05.251Z,65.00
2022-08-01T04:15:32.082Z,64.80
2022-08-01T04:17:58.889Z,64.70
2022-08-01T04:20:25.721Z,64.80
2022-08-01T04:22:53.364Z,64.80
2022-08-01T04:25:25.729Z,65.00
2022-08-01T04:27:52.782Z,65.10
2022-08-01T04:30:22.031Z,65.20
2022-08-01T04:32:48.911Z,65.30
2022-08-01T04:35:23.158Z,65.40
2022-08-01T04:38:04.634Z,65.40
2022-08-01T04:40:31.570Z,58.60
2022-08-01T04:42:58.588Z,55.20
2022-08-01T04:45:25.456Z,54.10
2022-08-01T04:47:52.381Z,55.40
2022-08-01T04:50:19.226Z,54.60
2022-08-01T04:52:45.991Z,55.20
2022-08-01T04:55:14.090Z,55.90
2022-08-01T04:57:42.630Z,56.20
2022-08-01T05:00:09.852Z,56.40
2022-08-01T05:02:37.066Z,56.60
2022-08-01T05:05:04.326Z,56.70
2022-08-01T05:07:31.113Z,56.80
2022-08-01T05:10:12.375Z,57.10
2022-08-01T05:12:39.210Z,57.60
2022-08-01T05:15:10.622Z,57.50
2022-08-01T05:17:43.434Z,57.70
2022-08-01T05:20:11.288Z,57.70
2022-08-01T05:22:38.339Z,57.90
2022-08-01T05:25:06.069Z,58.30
2022-08-01T05:27:38.891Z,58.40
2022-08-01T05:30:09.232Z,58.70
2022-08-01T05:32:36.418Z,58.90
2022-08-01T05:35:03.820Z,59.00
2022-08-01T05:37:30.963Z,59.20
2022-08-01T05:39:58.154Z,59.40
2022-08-01T05:42:25.247Z,60.50
2022-08-01T05:44:52.009Z,59.90
2022-08-01T05:47:18.982Z,59.90
2022-08-01T05:49:47.037Z,60.30
2022-08-01T05:52:13.877Z,60.40
2022-08-01T05:54:40.854Z,60.30
2022-08-01T05:57:07.724Z,60.30
2022-08-01T05:59:34.801Z,60.40
2022-08-01T06:02:02.364Z,60.60
2022-08-01T06:04:29.285Z,60.70
2022-08-01T06:06:56.094Z,60.80
2022-08-01T06:09:22.881Z,60.70
2022-08-01T06:11:49.877Z,61.00
2022-08-01T06:14:16.649Z,61.30
2022-08-01T06:16:43.422Z,61.50
2022-08-01T06:19:10.213Z,61.70
2022-08-01T06:21:36.977Z,61.90
2022-08-01T06:24:04.036Z,62.10
2022-08-01T06:26:30.869Z,62.30
2022-08-01T06:28:57.652Z,62.50
2022-08-01T06:31:24.413Z,62.50
2022-08-01T06:33:51.298Z,62.60
2022-08-01T06:36:18.408Z,62.60
2022-08-01T06:38:45.200Z,62.70
2022-08-01T06:41:11.962Z,63.20
2022-08-01T06:43:38.801Z,63.40
2022-08-01T06:46:05.551Z,63.20
2022-08-01T06:48:32.419Z,63.20
2022-08-01T06:51:12.460Z,63.60
2022-08-01T06:53:39.451Z,63.60
2022-08-01T06:56:06.763Z,64.40
2022-08-01T06:58:35.330Z,63.40
2022-08-01T07:01:02.945Z,63.70
2022-08-01T07:03:54.063Z,63.20
2022-08-01T07:06:18.965Z,63.10
2022-08-01T07:08:45.770Z,63.10
2022-08-01T07:11:12.521Z,63.80
2022-08-01T07:13:45.478Z,63.90
2022-08-01T07:16:13.675Z,63.40
2022-08-01T07:18:40.547Z,63.30
2022-08-01T07:21:07.330Z,63.30
2022-08-01T07:23:46.058Z,63.30
2022-08-01T07:26:14.199Z,63.00
2022-08-01T07:28:43.918Z,62.90
2022-08-01T07:31:11.008Z,62.90
2022-08-01T07:33:47.958Z,62.80
2022-08-01T07:36:17.096Z,62.50
2022-08-01T07:38:44.280Z,62.50
2022-08-01T07:41:11.123Z,62.40
2022-08-01T07:43:37.984Z,64.60
2022-08-01T07:46:04.971Z,66.90
2022-08-01T07:48:31.890Z,65.30
2022-08-01T07:50:58.673Z,63.50
2022-08-01T07:53:25.744Z,63.00
2022-08-01T07:55:52.611Z,61.80
2022-08-01T07:58:19.376Z,62.80
2022-08-01T08:00:46.138Z,64.60
2022-08-01T08:03:14.502Z,62.30
2022-08-01T08:05:58.507Z,62.80
2022-08-01T08:08:27.663Z,61.80
2022-08-01T08:10:54.574Z,62.20
2022-08-01T08:13:21.427Z,61.90
2022-08-01T08:15:49.017Z,61.40
2022-08-01T08:18:16.843Z,61.30
2022-08-01T08:20:43.928Z,61.60
2022-08-01T08:23:42.072Z,61.60
2022-08-01T08:26:11.698Z,61.80
2022-08-01T08:28:40.421Z,61.80
2022-08-01T08:31:08.133Z,62.20
2022-08-01T08:33:55.216Z,62.90
2022-08-01T08:36:22.044Z,62.40
2022-08-01T08:38:57.763Z,63.00
2022-08-01T08:41:24.574Z,63.90
2022-08-01T08:43:51.723Z,63.10
2022-08-01T08:46:18.683Z,62.50
2022-08-01T08:48:56.020Z,63.10
2022-08-01T08:51:22.893Z,63.50
2022-08-01T08:53:50.080Z,63.10
2022-08-01T08:56:17.283Z,63.70
2022-08-01T08:58:45.319Z,63.60
2022-08-01T09:01:13.465Z,66.90
2022-08-01T09:03:41.001Z,67.60
2022-08-01T09:06:08.157Z,66.00
2022-08-01T09:08:36.262Z,65.80
2022-08-01T09:11:03.143Z,65.10
2022-08-01T09:13:29.957Z,65.40
2022-08-01T09:15:59.915Z,65.60
2022-08-01T09:18:30.071Z,65.60
2022-08-01T09:21:18.208Z,65.30
2022-08-01T09:23:54.089Z,65.30
2022-08-01T09:26:32.497Z,65.60
2022-08-01T09:29:01.715Z,65.70
2022-08-01T09:31:38.440Z,65.90
2022-08-01T09:34:05.540Z,65.90
2022-08-01T09:36:54.384Z,66.00
2022-08-01T09:39:22.736Z,67.10
2022-08-01T09:41:49.651Z,66.30
2022-08-01T09:44:31.396Z,66.80
2022-08-01T09:47:08.200Z,66.80
2022-08-01T09:49:50.812Z,66.50
2022-08-01T09:52:21.119Z,66.50
2022-08-01T09:54:55.980Z,66.40
2022-08-01T09:57:23.099Z,66.50
2022-08-01T10:00:00.516Z,67.50
2022-08-01T10:02:32.061Z,68.00
2022-08-01T10:05:07.407Z,67.00
2022-08-01T10:07:43.166Z,68.00
2022-08-01T10:10:15.349Z,68.40
2022-08-01T10:12:47.693Z,69.00
2022-08-01T10:15:18.419Z,69.40
2022-08-01T10:17:57.361Z,70.60
2022-08-01T10:20:30.892Z,70.30
2022-08-01T10:23:02.052Z,70.70
2022-08-01T10:25:42.925Z,71.30
2022-08-01T10:28:18.213Z,71.50
2022-08-01T10:30:49.406Z,71.60
2022-08-01T10:33:19.999Z,72.10
2022-08-01T10:36:03.724Z,71.90
2022-08-01T10:38:36.103Z,72.10
2022-08-01T10:41:06.390Z,71.70
2022-08-01T10:43:35.595Z,72.30
2022-08-01T10:46:04.502Z,71.50
2022-08-01T10:48:54.131Z,71.10
2022-08-01T10:51:22.395Z,70.90
2022-08-01T10:53:54.844Z,70.50
2022-08-01T10:56:26.781Z,70.10
2022-08-01T10:59:01.515Z,70.20
2022-08-01T11:01:33.777Z,70.10
2022-08-01T11:04:17.054Z,70.10
2022-08-01T11:06:53.503Z,70.20
2022-08-01T11:09:36.156Z,70.50
2022-08-01T11:12:24.969Z,71.10
2022-08-01T11:15:02.795Z,71.20
2022-08-01T11:17:37.662Z,70.80
2022-08-01T11:20:18.160Z,70.40
2022-08-01T11:23:00.518Z,70.50
2022-08-01T11:26:03.048Z,70.40
2022-08-01T11:28:37.125Z,70.30
2022-08-01T11:31:10.743Z,70.20
2022-08-01T11:33:45.495Z,69.80
2022-08-01T11:36:14.166Z,69.80
2022-08-01T11:38:48.520Z,70.10
2022-08-01T11:41:17.141Z,70.30
2022-08-01T11:44:11.619Z,70.00
2022-08-01T11:46:57.810Z,69.50
2022-08-01T11:49:29.619Z,69.50
2022-08-01T11:52:30.360Z,69.30
2022-08-01T11:55:03.421Z,69.50
2022-08-01T11:57:34.852Z,69.80
2022-08-01T12:00:08.328Z,70.50
2022-08-01T12:02:35.699Z,70.90
2022-08-01T12:05:08.486Z,71.40
2022-08-01T12:07:40.631Z,71.80
2022-08-01T12:10:08.492Z,71.50
2022-08-01T12:12:36.088Z,71.40
2022-08-01T12:15:05.760Z,71.50
2022-08-01T12:17:39.595Z,71.60
2022-08-01T12:20:08.288Z,71.20
2022-08-01T12:22:35.236Z,71.00
2022-08-01T12:25:18.385Z,71.00
2022-08-01T12:27:46.984Z,70.80
2022-08-01T12:30:15.304Z,70.20
2022-08-01T12:32:43.229Z,70.10
2022-08-01T12:35:13.236Z,69.80
2022-08-01T12:38:18.568Z,69.60
2022-08-01T12:40:51.599Z,69.40
2022-08-01T12:43:27.592Z,69.30
2022-08-01T12:45:57.388Z,69.20
2022-08-01T12:48:24.597Z,69.20
2022-08-01T12:50:51.799Z,69.00
2022-08-01T12:53:21.489Z,68.90
2022-08-01T12:55:59.412Z,69.00
2022-08-01T12:58:33.711Z,68.80
2022-08-01T13:01:11.173Z,68.50
2022-08-01T13:03:38.425Z,68.00
2022-08-01T13:06:16.643Z,68.00
2022-08-01T13:08:44.062Z,67.20
2022-08-01T13:11:18.554Z,66.90
2022-08-01T13:13:51.976Z,66.80
2022-08-01T13:16:31.106Z,66.80
2022-08-01T13:19:05.849Z,66.70
2022-08-01T13:21:34.455Z,66.70
2022-08-01T13:24:27.970Z,66.60
2022-08-01T13:27:01.266Z,66.70
2022-08-01T13:29:46.040Z,66.70
2022-08-01T13:32:29.381Z,66.60
2022-08-01T13:35:10.274Z,66.60
2022-08-01T13:37:41.570Z,66.40
2022-08-01T13:40:09.888Z,66.30
2022-08-01T13:42:36.710Z,66.40
2022-08-01T13:45:05.238Z,66.30
2022-08-01T13:48:04.039Z,66.30
2022-08-01T13:50:29.082Z,66.30
2022-08-01T13:52:56.025Z,66.40
2022-08-01T13:55:22.820Z,66.40
2022-08-01T13:57:49.644Z,66.30
2022-08-01T14:00:17.034Z,66.30
2022-08-01T14:02:43.797Z,66.20
2022-08-01T14:05:10.850Z,66.20
2022-08-01T14:07:38.305Z,65.80
2022-08-01T14:10:19.422Z,65.60
2022-08-01T14:12:49.079Z,65.70
2022-08-01T14:15:36.858Z,65.80
2022-08-01T14:18:03.256Z,65.90
2022-08-01T14:20:32.707Z,66.00
2022-08-01T14:22:59.997Z,66.00
2022-08-01T14:26:03.570Z,66.00
2022-08-01T14:28:13.707Z,66.10
2022-08-01T14:30:42.333Z,66.20
2022-08-01T14:33:09.471Z,66.00
2022-08-01T14:36:01.952Z,66.60
2022-08-01T14:38:31.545Z,66.30
2022-08-01T14:41:00.435Z,66.30
2022-08-01T14:43:32.697Z,66.50
2022-08-01T14:46:01.002Z,66.60
2022-08-01T14:48:27.817Z,66.20
2022-08-01T14:50:54.675Z,67.20
2022-08-01T14:53:21.521Z,67.90
2022-08-01T14:55:48.396Z,67.30
2022-08-01T14:58:15.438Z,70.70
2022-08-01T15:00:42.325Z,69.10
2022-08-01T15:03:09.287Z,70.00
2022-08-01T15:05:37.320Z,71.20
2022-08-01T15:08:04.937Z,71.50
2022-08-01T15:10:33.398Z,72.00
2022-08-01T15:13:01.122Z,71.90
2022-08-01T15:15:28.380Z,72.70
2022-08-01T15:17:55.197Z,73.90
2022-08-01T15:20:22.077Z,73.70
2022-08-01T15:22:49.869Z,73.80
2022-08-01T15:25:16.674Z,74.20
2022-08-01T15:27:43.603Z,74.30
2022-08-01T15:30:10.666Z,74.10
2022-08-01T15:32:37.451Z,73.90
2022-08-01T15:35:04.496Z,74.00
2022-08-01T15:37:31.244Z,73.60
2022-08-01T15:39:58.030Z,73.50
2022-08-01T15:42:26.704Z,73.40
2022-08-01T15:44:54.410Z,73.50
2022-08-01T15:47:22.664Z,73.30
2022-08-01T15:49:52.235Z,73.10
2022-08-01T15:52:22.232Z,73.10
2022-08-01T15:54:50.367Z,72.90
2022-08-01T15:57:17.606Z,72.70
2022-08-01T15:59:44.397Z,72.40
2022-08-01T16:02:11.546Z,72.60
2022-08-01T16:04:39.255Z,72.80
2022-08-01T16:07:06.521Z,72.30
2022-08-01T16:09:33.377Z,71.80
2022-08-01T16:12:00.217Z,71.80
2022-08-01T16:14:27.052Z,71.90
2022-08-01T16:16:56.360Z,71.90
2022-08-01T16:19:24.201Z,71.80
2022-08-01T16:21:52.351Z,71.60
2022-08-01T16:24:19.399Z,71.60
2022-08-01T16:26:46.486Z,71.20
2022-08-01T16:29:13.303Z,71.10
2022-08-01T16:31:56.630Z,71.20
2022-08-01T16:34:26.829Z,71.30
2022-08-01T16:36:55.360Z,71.00
2022-08-01T16:39:23.544Z,71.00
2022-08-01T16:41:55.389Z,70.80
2022-08-01T16:44:33.118Z,70.60
2022-08-01T16:47:02.614Z,70.50
2022-08-01T16:49:29.497Z,70.40
2022-08-01T16:51:56.452Z,70.30
2022-08-01T16:54:25.041Z,70.30
2022-08-01T16:56:53.419Z,71.20
2022-08-01T16:59:20.766Z,70.50
2022-08-01T17:01:58.514Z,70.30
2022-08-01T17:04:28.824Z,70.10
2022-08-01T17:06:55.859Z,69.90
2022-08-01T17:09:22.691Z,69.90
2022-08-01T17:11:50.144Z,69.80
2022-08-01T17:14:17.923Z,69.60
2022-08-01T17:16:44.700Z,69.80
2022-08-01T17:19:11.490Z,69.90
2022-08-01T17:21:41.297Z,70.20
2022-08-01T17:24:08.666Z,70.60
2022-08-01T17:26:35.693Z,70.60
2022-08-01T17:29:04.380Z,71.40
2022-08-01T17:31:31.565Z,70.20
2022-08-01T17:33:58.379Z,69.30
2022-08-01T17:36:25.305Z,68.90
2022-08-01T17:38:52.190Z,68.80
2022-08-01T17:41:19.006Z,68.70
2022-08-01T17:43:45.882Z,68.80
2022-08-01T17:46:12.728Z,68.70
2022-08-01T17:48:39.623Z,68.70
2022-08-01T17:51:06.666Z,68.70
2022-08-01T17:53:33.805Z,68.70
2022-08-01T17:56:02.547Z,68.70
2022-08-01T17:58:33.007Z,68.90
2022-08-01T18:01:17.864Z,68.80
2022-08-01T18:03:45.003Z,68.70
2022-08-01T18:06:13.843Z,68.60
2022-08-01T18:08:42.031Z,68.50
2022-08-01T18:11:09.447Z,68.60
2022-08-01T18:13:36.541Z,68.50
2022-08-01T18:16:09.223Z,68.30
2022-08-01T18:18:36.366Z,67.00
2022-08-01T18:21:03.181Z,59.10
2022-08-01T18:23:29.996Z,58.20
2022-08-01T18:25:56.973Z,57.30
2022-08-01T18:28:31.148Z,56.50
2022-08-01T18:30:59.800Z,55.90
2022-08-01T18:33:26.574Z,55.40
2022-08-01T18:35:54.207Z,55.10
2022-08-01T18:38:25.167Z,55.20
2022-08-01T18:40:53.695Z,55.10
2022-08-01T18:43:21.017Z,56.00
2022-08-01T18:45:47.983Z,55.50
2022-08-01T18:48:15.127Z,56.30
2022-08-01T18:50:42.206Z,55.40
2022-08-01T18:53:09.435Z,55.50
2022-08-01T18:55:36.228Z,55.80
2022-08-01T18:58:03.071Z,56.10
2022-08-01T19:00:30.032Z,55.80
2022-08-01T19:02:57.016Z,55.40
2022-08-01T19:05:24.336Z,55.70
2022-08-01T19:08:06.730Z,55.90
2022-08-01T19:10:36.899Z,55.50
2022-08-01T19:13:04.046Z,55.30
2022-08-01T19:15:30.940Z,55.90
2022-08-01T19:17:57.730Z,55.80
2022-08-01T19:20:24.556Z,55.60
2022-08-01T19:22:51.928Z,55.60
2022-08-01T19:25:18.712Z,55.90
2022-08-01T19:27:50.042Z,56.10
2022-08-01T19:30:17.934Z,56.50
2022-08-01T19:32:45.570Z,56.50
2022-08-01T19:35:14.610Z,56.50
2022-08-01T19:37:45.719Z,56.50
2022-08-01T19:40:27.547Z,56.70
2022-08-01T19:42:56.247Z,56.90
2022-08-01T19:45:23.313Z,56.90
2022-08-01T19:47:56.603Z,56.90
2022-08-01T19:50:27.260Z,57.00
2022-08-01T19:52:55.442Z,57.30
2022-08-01T19:55:25.424Z,58.70
2022-08-01T19:58:16.915Z,58.50
2022-08-01T20:00:39.664Z,58.70
2022-08-01T20:03:06.510Z,58.70
2022-08-01T20:05:33.313Z,58.70
2022-08-01T20:08:00.086Z,58.60
2022-08-01T20:10:27.756Z,58.50
2022-08-01T20:12:57.201Z,58.40
2022-08-01T20:15:24.033Z,58.20
2022-08-01T20:17:51.565Z,58.20
2022-08-01T20:20:18.387Z,58.20
2022-08-01T20:22:45.139Z,59.20
2022-08-01T20:25:11.954Z,58.90
2022-08-01T20:27:38.878Z,59.40
2022-08-01T20:30:06.024Z,59.80
2022-08-01T20:32:33.760Z,60.00
2022-08-01T20:35:01.270Z,60.40
2022-08-01T20:38:03.928Z,60.70
2022-08-01T20:40:15.173Z,61.00
2022-08-01T20:42:41.991Z,60.00
2022-08-01T20:45:09.112Z,59.80
2022-08-01T20:47:36.631Z,60.30
2022-08-01T20:50:52.433Z,60.30
2022-08-01T20:53:08.981Z,60.10
2022-08-01T20:55:45.946Z,60.00
2022-08-01T20:58:13.229Z,60.20
2022-08-01T21:00:40.100Z,60.50
2022-08-01T21:03:15.625Z,60.90
2022-08-01T21:05:55.590Z,61.00
2022-08-01T21:08:35.904Z,61.30
2022-08-01T21:11:02.704Z,61.60
2022-08-01T21:13:43.573Z,61.70
2022-08-01T21:16:24.409Z,61.80
2022-08-01T21:19:19.520Z,61.90
2022-08-01T21:21:45.755Z,61.80
2022-08-01T21:24:17.353Z,61.70
2022-08-01T21:26:45.673Z,61.60
2022-08-01T21:29:12.628Z,61.60
2022-08-01T21:31:40.909Z,61.70
2022-08-01T21:34:08.277Z,62.00
2022-08-01T21:36:35.837Z,62.20
2022-08-01T21:39:04.048Z,62.40
2022-08-01T21:42:05.393Z,62.40
2022-08-01T21:44:20.239Z,62.50
2022-08-01T21:46:48.202Z,62.70
2022-08-01T21:49:15.160Z,62.60
2022-08-01T21:51:52.024Z,63.50
2022-08-01T21:54:35.302Z,62.80
2022-08-01T21:57:02.757Z,62.60
2022-08-01T21:59:50.104Z,62.60
2022-08-01T22:02:44.222Z,62.60
2022-08-01T22:05:12.345Z,62.70
2022-08-01T22:07:51.491Z,63.00
2022-08-01T22:10:19.008Z,63.10
2022-08-01T22:12:46.061Z,63.30
2022-08-01T22:15:13.575Z,63.10
2022-08-01T22:17:40.695Z,63.30
2022-08-01T22:20:08.207Z,63.40
2022-08-01T22:22:51.950Z,63.50
2022-08-01T22:25:20.113Z,63.50
2022-08-01T22:28:08.595Z,63.50
2022-08-01T22:30:34.698Z,63.50
2022-08-01T22:33:07.229Z,63.50
2022-08-01T22:35:42.903Z,63.60
2022-08-01T22:38:10.060Z,63.70
2022-08-01T22:40:37.567Z,63.90
2022-08-01T22:43:07.588Z,64.10
2022-08-01T22:45:47.558Z,64.20
2022-08-01T22:48:19.986Z,65.10
2022-08-01T22:51:02.210Z,64.40
2022-08-01T22:53:37.291Z,64.30
2022-08-01T22:56:06.521Z,64.40
2022-08-01T22:58:33.701Z,64.40
2022-08-01T23:01:01.447Z,64.30
2022-08-01T23:03:28.788Z,64.10
2022-08-01T23:06:07.420Z,64.00
2022-08-01T23:08:34.244Z,64.30
2022-08-01T23:11:01.419Z,64.30
2022-08-01T23:13:29.098Z,64.40
2022-08-01T23:16:00.206Z,64.60
2022-08-01T23:18:27.512Z,64.70
2022-08-01T23:20:58.398Z,65.10
2022-08-01T23:23:30.490Z,64.80
2022-08-01T23:25:58.594Z,64.80
2022-08-01T23:28:25.365Z,64.90
2022-08-01T23:30:52.129Z,65.00
2022-08-01T23:33:18.911Z,64.70
2022-08-01T23:35:45.888Z,64.70
2022-08-01T23:38:15.037Z,64.60
2022-08-01T23:40:41.933Z,64.70
2022-08-01T23:43:17.147Z,64.70
2022-08-01T23:46:03.265Z,64.90
2022-08-01T23:48:31.967Z,65.10
2022-08-01T23:50:58.746Z,65.20
2022-08-01T23:53:30.411Z,65.30
2022-08-01T23:55:58.547Z,65.40
2022-08-01T23:58:25.359Z,65.30
